Smithfield, Maine
Current Conditions -  °F | °C
As of 1:35 AM on Wednesday 28 Jan 2015 (Local Time) from KWVL Reporting Station
Overcast Overcast  
Wind Chill: -6°   Ceiling: 1500
Heat Index: 10°   Visibility: 2mi
Dew Point:   Wind: 15mph
Humidity: 92%   Direction: 360°N
Pressure: 29.62"   Gusts: 26mph
Location:  44.63°N, 69.83°W
Report Text: KWVL 280635Z 36013G23KT 2SM OVC015 M12/M13 A2962 RMK AO1
Loading
Personal Weather Stations






























Interactive Weather Map New forecast layout! Learn more

10-Day Weather Forecast

Advertisements
Track Severe Weather on mobile